sensor_id;sensor_type;location;lat;lon;timestamp;P1;durP1;ratioP1;P2;durP2;ratioP2
70705;SDS011;59320;52.316;10.870;2023-07-02T00:02:15;4.50;;;3.22;;
70705;SDS011;59320;52.316;10.870;2023-07-02T00:04:43;6.35;;;3.53;;
70705;SDS011;59320;52.316;10.870;2023-07-02T00:07:11;4.53;;;4.13;;
70705;SDS011;59320;52.316;10.870;2023-07-02T00:09:39;6.97;;;3.20;;
70705;SDS011;59320;52.316;10.870;2023-07-02T00:12:08;4.25;;;3.80;;
70705;SDS011;59320;52.316;10.870;2023-07-02T00:14:35;5.03;;;3.35;;
70705;SDS011;59320;52.316;10.870;2023-07-02T00:17:03;6.75;;;4.07;;
70705;SDS011;59320;52.316;10.870;2023-07-02T00:19:30;5.15;;;4.00;;
70705;SDS011;59320;52.316;10.870;2023-07-02T00:21:57;4.38;;;3.95;;
70705;SDS011;59320;52.316;10.870;2023-07-02T00:24:24;4.85;;;4.00;;
70705;SDS011;59320;52.316;10.870;2023-07-02T00:26:51;6.30;;;4.22;;
70705;SDS011;59320;52.316;10.870;2023-07-02T00:29:20;5.00;;;4.10;;
70705;SDS011;59320;52.316;10.870;2023-07-02T00:31:47;6.97;;;4.00;;
70705;SDS011;59320;52.316;10.870;2023-07-02T00:34:14;5.03;;;3.80;;
70705;SDS011;59320;52.316;10.870;2023-07-02T00:36:42;5.78;;;3.42;;
70705;SDS011;59320;52.316;10.870;2023-07-02T00:39:09;6.28;;;4.57;;
70705;SDS011;59320;52.316;10.870;2023-07-02T00:41:37;6.32;;;3.92;;
70705;SDS011;59320;52.316;10.870;2023-07-02T00:44:04;6.60;;;4.20;;
70705;SDS011;59320;52.316;10.870;2023-07-02T00:46:33;5.75;;;3.85;;
70705;SDS011;59320;52.316;10.870;2023-07-02T00:49:00;5.65;;;4.03;;
70705;SDS011;59320;52.316;10.870;2023-07-02T00:51:30;5.47;;;4.05;;
70705;SDS011;59320;52.316;10.870;2023-07-02T00:53:57;5.82;;;4.07;;
70705;SDS011;59320;52.316;10.870;2023-07-02T00:56:25;4.75;;;3.55;;
70705;SDS011;59320;52.316;10.870;2023-07-02T00:58:53;5.32;;;3.63;;
70705;SDS011;59320;52.316;10.870;2023-07-02T01:01:24;5.03;;;3.45;;
70705;SDS011;59320;52.316;10.870;2023-07-02T01:03:55;4.35;;;3.75;;
70705;SDS011;59320;52.316;10.870;2023-07-02T01:06:24;6.80;;;4.38;;
70705;SDS011;59320;52.316;10.870;2023-07-02T01:08:54;5.90;;;3.30;;
70705;SDS011;59320;52.316;10.870;2023-07-02T01:11:23;7.15;;;3.50;;
70705;SDS011;59320;52.316;10.870;2023-07-02T01:13:55;6.60;;;3.67;;
70705;SDS011;59320;52.316;10.870;2023-07-02T01:16:25;6.45;;;3.60;;
70705;SDS011;59320;52.316;10.870;2023-07-02T01:18:59;4.43;;;3.20;;
70705;SDS011;59320;52.316;10.870;2023-07-02T01:21:32;5.00;;;2.90;;
70705;SDS011;59320;52.316;10.870;2023-07-02T01:24:00;3.42;;;3.03;;
70705;SDS011;59320;52.316;10.870;2023-07-02T01:26:28;5.90;;;3.33;;
70705;SDS011;59320;52.316;10.870;2023-07-02T01:28:59;6.18;;;3.30;;
70705;SDS011;59320;52.316;10.870;2023-07-02T01:31:27;4.30;;;3.28;;
70705;SDS011;59320;52.316;10.870;2023-07-02T01:33:54;4.05;;;3.10;;
70705;SDS011;59320;52.316;10.870;2023-07-02T01:36:21;7.82;;;3.30;;
70705;SDS011;59320;52.316;10.870;2023-07-02T01:38:49;4.55;;;2.97;;
70705;SDS011;59320;52.316;10.870;2023-07-02T01:41:16;3.22;;;2.90;;
70705;SDS011;59320;52.316;10.870;2023-07-02T01:43:43;5.28;;;2.70;;
70705;SDS011;59320;52.316;10.870;2023-07-02T01:46:10;4.78;;;3.38;;
70705;SDS011;59320;52.316;10.870;2023-07-02T01:48:37;6.53;;;3.00;;
70705;SDS011;59320;52.316;10.870;2023-07-02T01:51:04;7.22;;;3.33;;
70705;SDS011;59320;52.316;10.870;2023-07-02T01:53:31;2.90;;;2.70;;
70705;SDS011;59320;52.316;10.870;2023-07-02T01:56:00;5.63;;;2.78;;
70705;SDS011;59320;52.316;10.870;2023-07-02T01:58:27;3.80;;;2.50;;
70705;SDS011;59320;52.316;10.870;2023-07-02T02:00:54;2.95;;;2.40;;
70705;SDS011;59320;52.316;10.870;2023-07-02T02:03:21;3.22;;;2.45;;
70705;SDS011;59320;52.316;10.870;2023-07-02T02:05:49;8.85;;;2.83;;
70705;SDS011;59320;52.316;10.870;2023-07-02T02:08:17;4.72;;;2.72;;
70705;SDS011;59320;52.316;10.870;2023-07-02T02:10:44;4.65;;;2.42;;
70705;SDS011;59320;52.316;10.870;2023-07-02T02:13:12;4.30;;;2.25;;
70705;SDS011;59320;52.316;10.870;2023-07-02T02:15:39;2.97;;;2.35;;
70705;SDS011;59320;52.316;10.870;2023-07-02T02:18:07;6.20;;;2.60;;
70705;SDS011;59320;52.316;10.870;2023-07-02T02:20:34;4.70;;;2.20;;
70705;SDS011;59320;52.316;10.870;2023-07-02T02:23:01;3.20;;;2.00;;
70705;SDS011;59320;52.316;10.870;2023-07-02T02:25:30;4.25;;;2.25;;
70705;SDS011;59320;52.316;10.870;2023-07-02T02:27:57;3.58;;;2.05;;
70705;SDS011;59320;52.316;10.870;2023-07-02T02:30:26;3.95;;;2.40;;
70705;SDS011;59320;52.316;10.870;2023-07-02T02:32:53;3.97;;;2.67;;
70705;SDS011;59320;52.316;10.870;2023-07-02T02:35:20;3.25;;;2.08;;
70705;SDS011;59320;52.316;10.870;2023-07-02T02:37:50;3.22;;;2.22;;
70705;SDS011;59320;52.316;10.870;2023-07-02T02:40:17;3.40;;;2.10;;
70705;SDS011;59320;52.316;10.870;2023-07-02T02:42:44;5.25;;;2.63;;
70705;SDS011;59320;52.316;10.870;2023-07-02T02:45:12;2.63;;;2.20;;
70705;SDS011;59320;52.316;10.870;2023-07-02T02:47:40;2.53;;;2.05;;
70705;SDS011;59320;52.316;10.870;2023-07-02T02:50:08;4.55;;;2.33;;
70705;SDS011;59320;52.316;10.870;2023-07-02T02:52:35;6.28;;;2.40;;
70705;SDS011;59320;52.316;10.870;2023-07-02T02:55:05;6.45;;;2.60;;
70705;SDS011;59320;52.316;10.870;2023-07-02T02:57:33;2.17;;;1.98;;
70705;SDS011;59320;52.316;10.870;2023-07-02T03:00:00;3.10;;;2.15;;
70705;SDS011;59320;52.316;10.870;2023-07-02T03:02:28;2.88;;;2.08;;
70705;SDS011;59320;52.316;10.870;2023-07-02T03:04:56;2.58;;;2.38;;
70705;SDS011;59320;52.316;10.870;2023-07-02T03:07:27;3.22;;;2.33;;
70705;SDS011;59320;52.316;10.870;2023-07-02T03:09:54;3.95;;;2.40;;
70705;SDS011;59320;52.316;10.870;2023-07-02T03:12:21;3.13;;;2.40;;
70705;SDS011;59320;52.316;10.870;2023-07-02T03:14:49;2.75;;;2.47;;
70705;SDS011;59320;52.316;10.870;2023-07-02T03:17:18;3.85;;;2.33;;
70705;SDS011;59320;52.316;10.870;2023-07-02T03:19:45;4.75;;;2.70;;
70705;SDS011;59320;52.316;10.870;2023-07-02T03:22:14;6.05;;;3.20;;
70705;SDS011;59320;52.316;10.870;2023-07-02T03:24:41;2.75;;;2.20;;
70705;SDS011;59320;52.316;10.870;2023-07-02T03:27:08;7.07;;;2.70;;
70705;SDS011;59320;52.316;10.870;2023-07-02T03:29:35;3.90;;;2.60;;
70705;SDS011;59320;52.316;10.870;2023-07-02T03:32:03;3.28;;;2.25;;
70705;SDS011;59320;52.316;10.870;2023-07-02T03:34:31;2.92;;;2.40;;
70705;SDS011;59320;52.316;10.870;2023-07-02T03:36:58;5.20;;;2.50;;
70705;SDS011;59320;52.316;10.870;2023-07-02T03:39:27;2.72;;;2.30;;
70705;SDS011;59320;52.316;10.870;2023-07-02T03:41:54;4.80;;;2.67;;
70705;SDS011;59320;52.316;10.870;2023-07-02T03:44:21;3.78;;;2.53;;
70705;SDS011;59320;52.316;10.870;2023-07-02T03:46:48;5.93;;;2.50;;
70705;SDS011;59320;52.316;10.870;2023-07-02T03:49:15;3.95;;;2.30;;
70705;SDS011;59320;52.316;10.870;2023-07-02T03:51:42;7.28;;;2.80;;
70705;SDS011;59320;52.316;10.870;2023-07-02T03:54:09;6.15;;;2.65;;
70705;SDS011;59320;52.316;10.870;2023-07-02T03:56:37;2.75;;;2.30;;
70705;SDS011;59320;52.316;10.870;2023-07-02T03:59:04;3.10;;;2.40;;
70705;SDS011;59320;52.316;10.870;2023-07-02T04:01:31;3.45;;;2.25;;
70705;SDS011;59320;52.316;10.870;2023-07-02T04:03:58;3.63;;;2.70;;
70705;SDS011;59320;52.316;10.870;2023-07-02T04:06:25;6.95;;;2.63;;
70705;SDS011;59320;52.316;10.870;2023-07-02T04:08:52;5.25;;;2.78;;
70705;SDS011;59320;52.316;10.870;2023-07-02T04:11:19;3.55;;;2.70;;
70705;SDS011;59320;52.316;10.870;2023-07-02T04:13:48;5.63;;;3.00;;
70705;SDS011;59320;52.316;10.870;2023-07-02T04:16:15;5.13;;;3.03;;
70705;SDS011;59320;52.316;10.870;2023-07-02T04:18:42;6.85;;;2.78;;
70705;SDS011;59320;52.316;10.870;2023-07-02T04:21:09;4.30;;;2.58;;
70705;SDS011;59320;52.316;10.870;2023-07-02T04:23:36;5.90;;;2.60;;
70705;SDS011;59320;52.316;10.870;2023-07-02T04:26:03;7.80;;;3.00;;
70705;SDS011;59320;52.316;10.870;2023-07-02T04:28:30;4.85;;;3.30;;
70705;SDS011;59320;52.316;10.870;2023-07-02T04:30:58;3.58;;;3.25;;
70705;SDS011;59320;52.316;10.870;2023-07-02T04:33:25;4.82;;;3.20;;
70705;SDS011;59320;52.316;10.870;2023-07-02T04:35:57;5.10;;;2.88;;
70705;SDS011;59320;52.316;10.870;2023-07-02T04:38:24;5.22;;;3.03;;
70705;SDS011;59320;52.316;10.870;2023-07-02T04:40:52;3.15;;;2.85;;
70705;SDS011;59320;52.316;10.870;2023-07-02T04:43:19;5.95;;;3.05;;
70705;SDS011;59320;52.316;10.870;2023-07-02T04:45:46;5.28;;;3.15;;
70705;SDS011;59320;52.316;10.870;2023-07-02T04:48:15;5.55;;;2.85;;
70705;SDS011;59320;52.316;10.870;2023-07-02T04:50:42;3.97;;;2.95;;
70705;SDS011;59320;52.316;10.870;2023-07-02T04:53:09;5.07;;;2.92;;
70705;SDS011;59320;52.316;10.870;2023-07-02T04:55:36;4.10;;;2.72;;
70705;SDS011;59320;52.316;10.870;2023-07-02T04:58:03;4.60;;;3.50;;
70705;SDS011;59320;52.316;10.870;2023-07-02T05:00:30;4.07;;;3.20;;
70705;SDS011;59320;52.316;10.870;2023-07-02T05:02:57;8.77;;;3.15;;
70705;SDS011;59320;52.316;10.870;2023-07-02T05:05:25;6.30;;;3.35;;
70705;SDS011;59320;52.316;10.870;2023-07-02T05:07:52;4.10;;;3.20;;
70705;SDS011;59320;52.316;10.870;2023-07-02T05:10:20;3.38;;;2.97;;
70705;SDS011;59320;52.316;10.870;2023-07-02T05:12:47;3.95;;;3.10;;
70705;SDS011;59320;52.316;10.870;2023-07-02T05:15:14;4.30;;;3.20;;
70705;SDS011;59320;52.316;10.870;2023-07-02T05:17:42;4.05;;;3.55;;
70705;SDS011;59320;52.316;10.870;2023-07-02T05:20:09;5.60;;;3.53;;
70705;SDS011;59320;52.316;10.870;2023-07-02T05:22:38;3.65;;;3.03;;
70705;SDS011;59320;52.316;10.870;2023-07-02T05:25:05;3.92;;;3.45;;
70705;SDS011;59320;52.316;10.870;2023-07-02T05:27:32;5.75;;;3.60;;
70705;SDS011;59320;52.316;10.870;2023-07-02T05:29:59;7.55;;;4.07;;
70705;SDS011;59320;52.316;10.870;2023-07-02T05:32:27;5.72;;;4.20;;
70705;SDS011;59320;52.316;10.870;2023-07-02T05:34:55;7.55;;;4.13;;
70705;SDS011;59320;52.316;10.870;2023-07-02T05:37:22;6.50;;;3.92;;
70705;SDS011;59320;52.316;10.870;2023-07-02T05:39:51;7.75;;;4.47;;
70705;SDS011;59320;52.316;10.870;2023-07-02T05:42:18;5.90;;;3.90;;
70705;SDS011;59320;52.316;10.870;2023-07-02T05:44:45;4.63;;;3.90;;
70705;SDS011;59320;52.316;10.870;2023-07-02T05:47:12;6.70;;;4.30;;
70705;SDS011;59320;52.316;10.870;2023-07-02T05:49:40;6.40;;;4.10;;
70705;SDS011;59320;52.316;10.870;2023-07-02T05:52:07;5.72;;;4.22;;
70705;SDS011;59320;52.316;10.870;2023-07-02T05:54:38;8.10;;;4.50;;
70705;SDS011;59320;52.316;10.870;2023-07-02T05:57:07;7.20;;;4.60;;
70705;SDS011;59320;52.316;10.870;2023-07-02T05:59:34;7.97;;;5.22;;
70705;SDS011;59320;52.316;10.870;2023-07-02T06:02:01;11.38;;;5.43;;
70705;SDS011;59320;52.316;10.870;2023-07-02T06:04:28;9.40;;;5.57;;
70705;SDS011;59320;52.316;10.870;2023-07-02T06:06:55;8.95;;;5.20;;
70705;SDS011;59320;52.316;10.870;2023-07-02T06:09:22;16.40;;;6.50;;
70705;SDS011;59320;52.316;10.870;2023-07-02T06:11:49;13.15;;;5.43;;
70705;SDS011;59320;52.316;10.870;2023-07-02T06:14:18;16.17;;;5.88;;
70705;SDS011;59320;52.316;10.870;2023-07-02T06:16:45;16.95;;;6.10;;
70705;SDS011;59320;52.316;10.870;2023-07-02T06:19:12;9.45;;;5.35;;
70705;SDS011;59320;52.316;10.870;2023-07-02T06:21:39;13.35;;;6.30;;
70705;SDS011;59320;52.316;10.870;2023-07-02T06:24:06;11.52;;;5.75;;
70705;SDS011;59320;52.316;10.870;2023-07-02T06:26:33;12.38;;;5.93;;
70705;SDS011;59320;52.316;10.870;2023-07-02T06:29:00;13.30;;;5.70;;
70705;SDS011;59320;52.316;10.870;2023-07-02T06:31:28;11.38;;;5.68;;
70705;SDS011;59320;52.316;10.870;2023-07-02T06:33:55;9.52;;;5.57;;
70705;SDS011;59320;52.316;10.870;2023-07-02T06:36:22;13.02;;;6.00;;
70705;SDS011;59320;52.316;10.870;2023-07-02T06:38:49;12.63;;;6.03;;
70705;SDS011;59320;52.316;10.870;2023-07-02T06:41:16;10.63;;;5.88;;
70705;SDS011;59320;52.316;10.870;2023-07-02T06:43:43;12.10;;;6.05;;
70705;SDS011;59320;52.316;10.870;2023-07-02T06:46:11;12.50;;;6.05;;
70705;SDS011;59320;52.316;10.870;2023-07-02T06:48:39;11.23;;;5.75;;
70705;SDS011;59320;52.316;10.870;2023-07-02T06:51:06;10.32;;;5.85;;
70705;SDS011;59320;52.316;10.870;2023-07-02T06:53:33;12.25;;;5.43;;
70705;SDS011;59320;52.316;10.870;2023-07-02T06:56:02;10.20;;;5.70;;
70705;SDS011;59320;52.316;10.870;2023-07-02T06:58:30;13.45;;;5.78;;
70705;SDS011;59320;52.316;10.870;2023-07-02T07:00:57;10.48;;;5.38;;
70705;SDS011;59320;52.316;10.870;2023-07-02T07:03:24;11.10;;;5.50;;
70705;SDS011;59320;52.316;10.870;2023-07-02T07:05:53;10.32;;;5.53;;
70705;SDS011;59320;52.316;10.870;2023-07-02T07:08:20;12.68;;;5.53;;
70705;SDS011;59320;52.316;10.870;2023-07-02T07:10:47;13.45;;;5.40;;
70705;SDS011;59320;52.316;10.870;2023-07-02T07:13:14;14.25;;;6.47;;
70705;SDS011;59320;52.316;10.870;2023-07-02T07:15:41;12.95;;;5.80;;
70705;SDS011;59320;52.316;10.870;2023-07-02T07:18:08;17.17;;;6.50;;
70705;SDS011;59320;52.316;10.870;2023-07-02T07:20:36;11.15;;;5.32;;
70705;SDS011;59320;52.316;10.870;2023-07-02T07:23:06;12.27;;;5.38;;
70705;SDS011;59320;52.316;10.870;2023-07-02T07:25:33;10.98;;;5.93;;
70705;SDS011;59320;52.316;10.870;2023-07-02T07:28:00;15.77;;;5.95;;
70705;SDS011;59320;52.316;10.870;2023-07-02T07:30:27;15.90;;;6.00;;
70705;SDS011;59320;52.316;10.870;2023-07-02T07:32:56;11.05;;;5.43;;
70705;SDS011;59320;52.316;10.870;2023-07-02T07:35:23;13.48;;;5.50;;
70705;SDS011;59320;52.316;10.870;2023-07-02T07:37:50;16.15;;;6.38;;
70705;SDS011;59320;52.316;10.870;2023-07-02T07:40:18;14.93;;;6.68;;
70705;SDS011;59320;52.316;10.870;2023-07-02T07:42:45;12.10;;;6.47;;
70705;SDS011;59320;52.316;10.870;2023-07-02T07:45:12;11.50;;;5.72;;
70705;SDS011;59320;52.316;10.870;2023-07-02T07:47:39;15.27;;;6.35;;
70705;SDS011;59320;52.316;10.870;2023-07-02T07:50:07;15.38;;;6.32;;
70705;SDS011;59320;52.316;10.870;2023-07-02T07:52:36;14.23;;;6.30;;
70705;SDS011;59320;52.316;10.870;2023-07-02T07:55:04;18.60;;;6.82;;
70705;SDS011;59320;52.316;10.870;2023-07-02T07:57:33;18.60;;;7.03;;
70705;SDS011;59320;52.316;10.870;2023-07-02T08:00:01;17.45;;;6.57;;
70705;SDS011;59320;52.316;10.870;2023-07-02T08:02:42;17.65;;;6.47;;
70705;SDS011;59320;52.316;10.870;2023-07-02T08:05:09;14.63;;;6.60;;
70705;SDS011;59320;52.316;10.870;2023-07-02T08:07:36;15.57;;;6.30;;
70705;SDS011;59320;52.316;10.870;2023-07-02T08:10:03;14.38;;;6.03;;
70705;SDS011;59320;52.316;10.870;2023-07-02T08:12:30;22.52;;;6.68;;
70705;SDS011;59320;52.316;10.870;2023-07-02T08:14:59;14.77;;;5.93;;
70705;SDS011;59320;52.316;10.870;2023-07-02T08:17:26;11.77;;;5.95;;
70705;SDS011;59320;52.316;10.870;2023-07-02T08:19:56;16.02;;;5.70;;
70705;SDS011;59320;52.316;10.870;2023-07-02T08:22:23;21.60;;;6.78;;
70705;SDS011;59320;52.316;10.870;2023-07-02T08:24:51;15.63;;;6.22;;
70705;SDS011;59320;52.316;10.870;2023-07-02T08:27:18;16.83;;;7.03;;
70705;SDS011;59320;52.316;10.870;2023-07-02T08:29:45;16.42;;;6.80;;
70705;SDS011;59320;52.316;10.870;2023-07-02T08:32:14;16.33;;;6.78;;
70705;SDS011;59320;52.316;10.870;2023-07-02T08:34:41;12.90;;;5.95;;
70705;SDS011;59320;52.316;10.870;2023-07-02T08:37:08;14.07;;;6.35;;
70705;SDS011;59320;52.316;10.870;2023-07-02T08:39:36;14.30;;;6.18;;
70705;SDS011;59320;52.316;10.870;2023-07-02T08:42:05;12.48;;;5.60;;
70705;SDS011;59320;52.316;10.870;2023-07-02T08:44:33;16.25;;;6.45;;
70705;SDS011;59320;52.316;10.870;2023-07-02T08:47:00;13.35;;;6.07;;
70705;SDS011;59320;52.316;10.870;2023-07-02T08:49:29;13.68;;;6.28;;
70705;SDS011;59320;52.316;10.870;2023-07-02T08:51:57;14.60;;;6.32;;
70705;SDS011;59320;52.316;10.870;2023-07-02T08:54:25;12.45;;;5.68;;
70705;SDS011;59320;52.316;10.870;2023-07-02T08:56:52;13.45;;;6.63;;
70705;SDS011;59320;52.316;10.870;2023-07-02T08:59:19;14.95;;;6.03;;
70705;SDS011;59320;52.316;10.870;2023-07-02T09:01:46;18.17;;;6.93;;
70705;SDS011;59320;52.316;10.870;2023-07-02T09:04:17;13.50;;;6.47;;
70705;SDS011;59320;52.316;10.870;2023-07-02T09:06:47;15.65;;;6.28;;
70705;SDS011;59320;52.316;10.870;2023-07-02T09:09:14;15.93;;;6.70;;
70705;SDS011;59320;52.316;10.870;2023-07-02T09:11:47;13.68;;;6.32;;
70705;SDS011;59320;52.316;10.870;2023-07-02T09:14:25;13.82;;;6.68;;
70705;SDS011;59320;52.316;10.870;2023-07-02T09:17:03;16.30;;;6.78;;
70705;SDS011;59320;52.316;10.870;2023-07-02T09:19:31;16.55;;;7.15;;
70705;SDS011;59320;52.316;10.870;2023-07-02T09:22:00;16.98;;;6.55;;
70705;SDS011;59320;52.316;10.870;2023-07-02T09:24:28;16.35;;;6.95;;
70705;SDS011;59320;52.316;10.870;2023-07-02T09:26:56;16.45;;;7.20;;
70705;SDS011;59320;52.316;10.870;2023-07-02T09:29:25;14.73;;;7.20;;
70705;SDS011;59320;52.316;10.870;2023-07-02T09:31:53;16.52;;;6.35;;
70705;SDS011;59320;52.316;10.870;2023-07-02T09:34:26;17.17;;;6.55;;
70705;SDS011;59320;52.316;10.870;2023-07-02T09:36:55;15.20;;;6.80;;
70705;SDS011;59320;52.316;10.870;2023-07-02T09:39:26;15.45;;;7.00;;
70705;SDS011;59320;52.316;10.870;2023-07-02T09:41:55;17.30;;;6.10;;
70705;SDS011;59320;52.316;10.870;2023-07-02T09:44:25;16.55;;;6.97;;
70705;SDS011;59320;52.316;10.870;2023-07-02T09:46:56;15.15;;;6.10;;
70705;SDS011;59320;52.316;10.870;2023-07-02T09:49:27;13.52;;;6.65;;
70705;SDS011;59320;52.316;10.870;2023-07-02T09:51:58;15.43;;;6.47;;
70705;SDS011;59320;52.316;10.870;2023-07-02T09:54:28;21.48;;;7.70;;
70705;SDS011;59320;52.316;10.870;2023-07-02T09:56:55;17.95;;;6.85;;
70705;SDS011;59320;52.316;10.870;2023-07-02T09:59:23;10.43;;;6.38;;
70705;SDS011;59320;52.316;10.870;2023-07-02T10:01:50;15.75;;;6.47;;
70705;SDS011;59320;52.316;10.870;2023-07-02T10:04:18;12.35;;;6.60;;
70705;SDS011;59320;52.316;10.870;2023-07-02T10:06:46;15.18;;;6.38;;
70705;SDS011;59320;52.316;10.870;2023-07-02T10:09:14;16.15;;;7.13;;
70705;SDS011;59320;52.316;10.870;2023-07-02T10:11:43;18.88;;;6.53;;
70705;SDS011;59320;52.316;10.870;2023-07-02T10:14:10;16.25;;;6.72;;
70705;SDS011;59320;52.316;10.870;2023-07-02T10:16:50;13.95;;;6.00;;
70705;SDS011;59320;52.316;10.870;2023-07-02T10:19:18;16.52;;;6.85;;
70705;SDS011;59320;52.316;10.870;2023-07-02T10:21:45;13.57;;;6.57;;
70705;SDS011;59320;52.316;10.870;2023-07-02T10:24:16;14.55;;;6.50;;
70705;SDS011;59320;52.316;10.870;2023-07-02T10:26:55;16.45;;;6.78;;
70705;SDS011;59320;52.316;10.870;2023-07-02T10:29:23;15.02;;;6.75;;
70705;SDS011;59320;52.316;10.870;2023-07-02T10:31:51;16.17;;;6.75;;
70705;SDS011;59320;52.316;10.870;2023-07-02T10:34:29;16.00;;;6.30;;
70705;SDS011;59320;52.316;10.870;2023-07-02T10:36:57;14.70;;;6.90;;
70705;SDS011;59320;52.316;10.870;2023-07-02T10:39:27;15.70;;;6.35;;
70705;SDS011;59320;52.316;10.870;2023-07-02T10:42:04;23.70;;;6.65;;
70705;SDS011;59320;52.316;10.870;2023-07-02T10:44:31;14.55;;;6.00;;
70705;SDS011;59320;52.316;10.870;2023-07-02T10:46:59;14.48;;;6.70;;
70705;SDS011;59320;52.316;10.870;2023-07-02T10:49:30;12.35;;;6.47;;
70705;SDS011;59320;52.316;10.870;2023-07-02T10:51:58;15.10;;;6.47;;
70705;SDS011;59320;52.316;10.870;2023-07-02T10:54:25;13.90;;;6.30;;
70705;SDS011;59320;52.316;10.870;2023-07-02T10:56:56;15.57;;;6.50;;
70705;SDS011;59320;52.316;10.870;2023-07-02T10:59:25;13.45;;;6.80;;
70705;SDS011;59320;52.316;10.870;2023-07-02T11:01:52;14.82;;;6.30;;
70705;SDS011;59320;52.316;10.870;2023-07-02T11:04:20;13.25;;;6.40;;
70705;SDS011;59320;52.316;10.870;2023-07-02T11:06:48;11.70;;;5.93;;
70705;SDS011;59320;52.316;10.870;2023-07-02T11:09:16;11.80;;;5.85;;
70705;SDS011;59320;52.316;10.870;2023-07-02T11:11:49;12.77;;;5.68;;
70705;SDS011;59320;52.316;10.870;2023-07-02T11:14:30;14.23;;;6.15;;
70705;SDS011;59320;52.316;10.870;2023-07-02T11:16:58;12.85;;;5.90;;
70705;SDS011;59320;52.316;10.870;2023-07-02T11:19:27;16.73;;;6.55;;
70705;SDS011;59320;52.316;10.870;2023-07-02T11:21:55;16.60;;;6.72;;
70705;SDS011;59320;52.316;10.870;2023-07-02T11:24:26;14.35;;;6.05;;
70705;SDS011;59320;52.316;10.870;2023-07-02T11:26:54;12.68;;;6.45;;
70705;SDS011;59320;52.316;10.870;2023-07-02T11:29:21;14.85;;;6.30;;
70705;SDS011;59320;52.316;10.870;2023-07-02T11:31:50;14.27;;;6.55;;
70705;SDS011;59320;52.316;10.870;2023-07-02T11:34:17;13.80;;;6.47;;
70705;SDS011;59320;52.316;10.870;2023-07-02T11:36:46;11.23;;;5.53;;
70705;SDS011;59320;52.316;10.870;2023-07-02T11:39:15;11.68;;;5.95;;
70705;SDS011;59320;52.316;10.870;2023-07-02T11:41:43;14.05;;;6.13;;
70705;SDS011;59320;52.316;10.870;2023-07-02T11:44:12;11.30;;;5.78;;
70705;SDS011;59320;52.316;10.870;2023-07-02T11:46:39;14.45;;;6.05;;
70705;SDS011;59320;52.316;10.870;2023-07-02T11:49:07;9.35;;;5.53;;
70705;SDS011;59320;52.316;10.870;2023-07-02T11:51:35;10.70;;;6.15;;
70705;SDS011;59320;52.316;10.870;2023-07-02T11:54:02;11.98;;;5.80;;
70705;SDS011;59320;52.316;10.870;2023-07-02T11:56:30;10.80;;;5.63;;
70705;SDS011;59320;52.316;10.870;2023-07-02T11:58:57;15.50;;;6.65;;
70705;SDS011;59320;52.316;10.870;2023-07-02T12:01:25;11.70;;;5.82;;
70705;SDS011;59320;52.316;10.870;2023-07-02T12:03:52;15.15;;;6.28;;
70705;SDS011;59320;52.316;10.870;2023-07-02T12:06:21;10.90;;;5.55;;
70705;SDS011;59320;52.316;10.870;2023-07-02T12:08:48;13.35;;;5.80;;
70705;SDS011;59320;52.316;10.870;2023-07-02T12:11:15;12.40;;;6.03;;
70705;SDS011;59320;52.316;10.870;2023-07-02T12:13:42;9.13;;;5.43;;
70705;SDS011;59320;52.316;10.870;2023-07-02T12:16:09;11.80;;;6.00;;
70705;SDS011;59320;52.316;10.870;2023-07-02T12:18:36;11.90;;;5.22;;
70705;SDS011;59320;52.316;10.870;2023-07-02T12:21:03;13.00;;;5.07;;
70705;SDS011;59320;52.316;10.870;2023-07-02T12:23:32;12.57;;;5.75;;
70705;SDS011;59320;52.316;10.870;2023-07-02T12:25:59;11.20;;;5.40;;
70705;SDS011;59320;52.316;10.870;2023-07-02T12:28:26;13.02;;;5.32;;
70705;SDS011;59320;52.316;10.870;2023-07-02T12:30:53;15.35;;;5.82;;
70705;SDS011;59320;52.316;10.870;2023-07-02T12:33:20;10.73;;;5.85;;
70705;SDS011;59320;52.316;10.870;2023-07-02T12:35:47;13.07;;;5.90;;
70705;SDS011;59320;52.316;10.870;2023-07-02T12:38:14;12.80;;;5.53;;
70705;SDS011;59320;52.316;10.870;2023-07-02T12:40:42;11.18;;;5.53;;
70705;SDS011;59320;52.316;10.870;2023-07-02T12:43:09;11.82;;;5.57;;
70705;SDS011;59320;52.316;10.870;2023-07-02T12:45:36;14.35;;;5.80;;
70705;SDS011;59320;52.316;10.870;2023-07-02T12:48:04;12.10;;;5.57;;
70705;SDS011;59320;52.316;10.870;2023-07-02T12:50:31;13.95;;;5.40;;
70705;SDS011;59320;52.316;10.870;2023-07-02T12:52:58;11.70;;;5.65;;
70705;SDS011;59320;52.316;10.870;2023-07-02T12:55:25;12.38;;;4.97;;
70705;SDS011;59320;52.316;10.870;2023-07-02T12:57:53;10.57;;;5.32;;
70705;SDS011;59320;52.316;10.870;2023-07-02T13:00:20;12.10;;;5.22;;
70705;SDS011;59320;52.316;10.870;2023-07-02T13:02:47;9.32;;;5.00;;
70705;SDS011;59320;52.316;10.870;2023-07-02T13:05:15;13.35;;;5.47;;
70705;SDS011;59320;52.316;10.870;2023-07-02T13:07:42;11.25;;;5.25;;
70705;SDS011;59320;52.316;10.870;2023-07-02T13:10:09;9.15;;;5.20;;
70705;SDS011;59320;52.316;10.870;2023-07-02T13:12:36;12.32;;;5.63;;
70705;SDS011;59320;52.316;10.870;2023-07-02T13:15:05;10.98;;;5.57;;
70705;SDS011;59320;52.316;10.870;2023-07-02T13:17:33;12.52;;;5.00;;
70705;SDS011;59320;52.316;10.870;2023-07-02T13:20:00;11.43;;;4.95;;
70705;SDS011;59320;52.316;10.870;2023-07-02T13:22:28;12.52;;;5.25;;
70705;SDS011;59320;52.316;10.870;2023-07-02T13:24:55;10.85;;;5.43;;
70705;SDS011;59320;52.316;10.870;2023-07-02T13:27:22;10.30;;;5.10;;
70705;SDS011;59320;52.316;10.870;2023-07-02T13:29:49;12.50;;;5.80;;
70705;SDS011;59320;52.316;10.870;2023-07-02T13:32:17;13.35;;;5.30;;
70705;SDS011;59320;52.316;10.870;2023-07-02T13:34:44;12.13;;;5.25;;
70705;SDS011;59320;52.316;10.870;2023-07-02T13:37:11;12.43;;;5.10;;
70705;SDS011;59320;52.316;10.870;2023-07-02T13:39:39;10.52;;;5.28;;
70705;SDS011;59320;52.316;10.870;2023-07-02T13:42:06;11.18;;;5.95;;
70705;SDS011;59320;52.316;10.870;2023-07-02T13:44:33;11.75;;;5.05;;
70705;SDS011;59320;52.316;10.870;2023-07-02T13:47:00;11.90;;;5.20;;
70705;SDS011;59320;52.316;10.870;2023-07-02T13:49:29;10.52;;;5.55;;
70705;SDS011;59320;52.316;10.870;2023-07-02T13:51:57;13.38;;;5.50;;
70705;SDS011;59320;52.316;10.870;2023-07-02T13:54:26;14.10;;;5.15;;
70705;SDS011;59320;52.316;10.870;2023-07-02T13:56:53;16.30;;;5.30;;
70705;SDS011;59320;52.316;10.870;2023-07-02T13:59:23;9.90;;;5.25;;
70705;SDS011;59320;52.316;10.870;2023-07-02T14:01:50;13.55;;;4.85;;
70705;SDS011;59320;52.316;10.870;2023-07-02T14:04:17;11.20;;;5.20;;
70705;SDS011;59320;52.316;10.870;2023-07-02T14:06:44;10.68;;;5.22;;
70705;SDS011;59320;52.316;10.870;2023-07-02T14:09:12;13.02;;;5.32;;
70705;SDS011;59320;52.316;10.870;2023-07-02T14:11:39;15.40;;;5.60;;
70705;SDS011;59320;52.316;10.870;2023-07-02T14:14:08;10.43;;;5.10;;
70705;SDS011;59320;52.316;10.870;2023-07-02T14:16:36;10.82;;;4.80;;
70705;SDS011;59320;52.316;10.870;2023-07-02T14:19:03;11.98;;;4.88;;
70705;SDS011;59320;52.316;10.870;2023-07-02T14:21:31;10.25;;;5.22;;
70705;SDS011;59320;52.316;10.870;2023-07-02T14:23:58;11.10;;;5.03;;
70705;SDS011;59320;52.316;10.870;2023-07-02T14:26:25;9.77;;;4.88;;
70705;SDS011;59320;52.316;10.870;2023-07-02T14:28:52;11.77;;;4.85;;
70705;SDS011;59320;52.316;10.870;2023-07-02T14:31:19;11.80;;;4.78;;
70705;SDS011;59320;52.316;10.870;2023-07-02T14:33:48;10.82;;;5.03;;